West Miltmore, Illinois
Current Conditions -  °F | °C
As of 12:55 AM on Monday 22 Dec 2014 (Local Time) from KUGN Reporting Station
Haze Haze  
Wind Chill: 24°   Ceiling: Unl
Heat Index: 32°   Visibility: 6mi
Dew Point: 27°   Wind: 10mph
Humidity: 82%   Direction: 150°SSE
Pressure: 29.98"   Gusts: NA
Location:  42.4132°N, 88.0615°W
Report Text: KUGN 220655Z AUTO 15009KT 6SM HZ CLR 00/M03 A2998 RMK AO2 SLP164 T00001028
Loading
Personal Weather Stations






























Interactive Weather Map New forecast layout! Learn more

10-Day Weather Forecast

Advertisements
Track Severe Weather on mobile